Time;durP1;ratioP1;P1;durP2;ratioP2;P2;SDS_P1;SDS_P2;PMS_P1;PMS_P2;Temp;Humidity;BMP_temperature;BMP_pressure;BME280_temperature;BME280_humidity;BME280_pressure;Samples;Min_cycle;Max_cycle;Signal;HPM_P1;HPM_P2
2022/01/27 00:04:26;;;;;;;4.55;2.95;;;5.80;52.30;;;;;;4921611;29;20047;-85
2022/01/27 00:06:52;;;;;;;4.30;2.97;;;5.80;52.20;;;;;;4919019;29;20036;-85
2022/01/27 00:09:25;;;;;;;6.10;3.38;;;5.80;52.20;;;;;;4938009;29;20034;-85
2022/01/27 00:11:51;;;;;;;3.90;2.65;;;5.80;52.20;;;;;;4919349;29;20047;-85
2022/01/27 00:14:20;;;;;;;5.05;2.75;;;5.80;52.10;;;;;;4921042;29;20032;-86
2022/01/27 00:16:55;;;;;;;4.63;3.30;;;5.80;52.10;;;;;;4938342;29;20041;-85
2022/01/27 00:19:21;;;;;;;5.80;3.20;;;5.80;52.10;;;;;;4938107;29;20086;-86
2022/01/27 00:21:47;;;;;;;4.45;3.10;;;5.80;52.20;;;;;;4921600;29;20044;-83
2022/01/27 00:24:13;;;;;;;4.30;3.20;;;5.80;52.10;;;;;;4923312;29;20031;-85
2022/01/27 00:26:40;;;;;;;4.65;3.00;;;5.80;52.20;;;;;;4920815;29;20043;-85
2022/01/27 00:29:06;;;;;;;4.88;3.13;;;5.80;52.20;;;;;;4923693;29;20035;-87
2022/01/27 00:31:32;;;;;;;4.32;3.05;;;5.80;52.10;;;;;;4937323;29;20027;-87
2022/01/27 00:34:03;;;;;;;4.07;2.88;;;5.80;52.10;;;;;;4936327;28;20039;-86
2022/01/27 00:36:32;;;;;;;3.78;2.97;;;5.80;52.20;;;;;;4937333;29;20090;-85
2022/01/27 00:38:58;;;;;;;6.00;3.30;;;5.70;52.10;;;;;;4920983;29;20041;-86
2022/01/27 00:41:25;;;;;;;5.60;3.28;;;5.70;52.10;;;;;;4904601;29;20039;-85
2022/01/27 00:43:51;;;;;;;4.50;2.80;;;5.80;52.10;;;;;;4937894;28;20044;-82
2022/01/27 00:46:18;;;;;;;3.63;3.10;;;5.80;52.10;;;;;;4939690;29;20111;-84
2022/01/27 00:48:45;;;;;;;4.82;3.30;;;5.70;52.10;;;;;;4922454;29;20063;-84
2022/01/27 00:51:14;;;;;;;5.07;3.08;;;5.70;52.00;;;;;;4919656;29;20062;-84
2022/01/27 00:54:02;;;;;;;4.28;3.05;;;5.70;52.00;;;;;;4937071;29;20043;-83
2022/01/27 00:56:38;;;;;;;3.90;3.00;;;5.70;52.00;;;;;;4929524;29;20480;-84
2022/01/27 01:01:43;;;;;;;3.92;3.22;;;5.70;52.00;;;;;;4937691;29;20118;-84
2022/01/27 01:04:11;;;;;;;4.72;3.13;;;5.70;51.90;;;;;;4936752;29;20114;-84
2022/01/27 01:17:10;;;;;;;5.43;3.00;;;5.70;52.00;;;;;;4913682;29;20190;-86
2022/01/27 01:35:17;;;;;;;;;;;5.90;51.80;;;;;;4938328;29;20368;-85
2022/01/27 01:37:44;;;;;;;4.88;3.60;;;5.90;51.70;;;;;;4937555;29;20351;-86
2022/01/27 01:40:16;;;;;;;3.75;3.40;;;5.90;51.50;;;;;;4938365;29;20391;-84
2022/01/27 01:42:43;;;;;;;6.18;3.80;;;5.90;51.50;;;;;;4896147;29;20029;-85
2022/01/27 01:45:19;;;;;;;5.88;3.78;;;5.90;51.40;;;;;;4919317;29;20040;-85
2022/01/27 01:47:47;;;;;;;4.30;3.50;;;5.90;51.40;;;;;;4939779;29;20033;-86
2022/01/27 01:50:13;;;;;;;4.97;3.55;;;5.90;51.40;;;;;;4941406;29;20036;-85
2022/01/27 01:52:40;;;;;;;5.68;3.60;;;5.90;51.40;;;;;;4945017;29;20046;-86
2022/01/27 01:55:08;;;;;;;4.63;3.75;;;5.90;51.30;;;;;;4934253;29;20095;-85
2022/01/27 01:57:35;;;;;;;5.38;3.60;;;5.90;51.30;;;;;;4933521;29;20031;-83
2022/01/27 02:00:02;;;;;;;5.40;3.63;;;5.90;51.30;;;;;;4924894;29;20035;-85
2022/01/27 02:02:37;;;;;;;4.90;3.50;;;5.90;51.30;;;;;;4921222;29;20121;-83
2022/01/27 02:05:05;;;;;;;5.72;3.40;;;5.90;51.30;;;;;;4937035;29;20045;-83
2022/01/27 02:18:40;;;;;;;4.70;3.60;;;5.90;51.30;;;;;;4864736;29;20092;-85
2022/01/27 02:21:06;;;;;;;3.85;3.50;;;5.90;51.30;;;;;;4863716;29;20073;-84
2022/01/27 02:23:32;;;;;;;3.92;3.47;;;5.90;51.20;;;;;;4864717;29;20549;-84
2022/01/27 02:25:58;;;;;;;4.57;3.60;;;5.90;51.20;;;;;;4864563;29;20040;-84
2022/01/27 02:28:24;;;;;;;4.03;3.45;;;5.90;51.20;;;;;;4863152;29;20041;-84
2022/01/27 02:30:50;;;;;;;4.18;3.78;;;5.90;51.20;;;;;;4849248;29;20044;-85
2022/01/27 02:33:15;;;;;;;4.00;3.28;;;5.90;51.20;;;;;;4864324;29;20506;-84
2022/01/27 02:35:41;;;;;;;4.57;3.40;;;5.90;51.20;;;;;;4865201;29;20052;-84
2022/01/27 02:38:07;;;;;;;6.63;4.03;;;5.90;51.10;;;;;;4863565;29;20041;-84
2022/01/27 02:40:38;;;;;;;4.05;3.13;;;5.90;51.20;;;;;;4864770;29;20397;-85
2022/01/27 02:43:05;;;;;;;3.78;3.00;;;5.80;51.00;;;;;;4863628;29;20128;-84
2022/01/27 02:45:54;;;;;;;3.10;2.80;;;5.80;51.00;;;;;;4864857;29;20029;-85
2022/01/27 02:48:20;;;;;;;4.18;3.35;;;5.80;50.90;;;;;;4863455;29;20140;-84
2022/01/27 02:50:46;;;;;;;3.50;2.70;;;5.80;50.80;;;;;;4849002;29;20033;-83
2022/01/27 02:53:12;;;;;;;2.97;2.65;;;5.80;50.80;;;;;;4887442;29;20048;-84
2022/01/27 02:55:38;;;;;;;3.25;2.20;;;5.80;50.80;;;;;;4919007;29;20421;-84
2022/01/27 02:58:04;;;;;;;3.72;2.70;;;5.80;50.80;;;;;;4932685;29;20036;-82
2022/01/27 03:00:32;;;;;;;2.38;2.15;;;5.80;50.70;;;;;;4941155;28;20054;-83
2022/01/27 03:02:58;;;;;;;3.80;2.53;;;5.80;50.60;;;;;;4923304;29;20036;-84
2022/01/27 03:05:24;;;;;;;2.20;2.00;;;5.80;50.60;;;;;;4942693;29;20038;-83
2022/01/27 03:07:50;;;;;;;3.33;1.90;;;5.80;50.50;;;;;;4923171;29;20039;-84
2022/01/27 03:10:17;;;;;;;2.78;2.10;;;5.80;50.50;;;;;;4922563;29;20054;-85
2022/01/27 03:12:43;;;;;;;2.67;2.00;;;5.80;50.40;;;;;;4906614;29;21355;-84
2022/01/27 03:15:11;;;;;;;3.15;1.60;;;5.90;50.30;;;;;;4938069;29;20364;-83
2022/01/27 03:17:38;;;;;;;1.58;1.48;;;5.90;50.20;;;;;;4931117;29;20570;-85
2022/01/27 03:20:06;;;;;;;3.60;1.92;;;5.90;50.10;;;;;;4939135;29;20062;-85
2022/01/27 03:22:31;;;;;;;2.05;1.80;;;5.90;50.00;;;;;;4937792;29;20075;-85
2022/01/27 03:24:57;;;;;;;3.05;1.50;;;5.90;49.90;;;;;;4938908;29;20067;-86
2022/01/27 03:27:26;;;;;;;2.35;1.27;;;6.00;49.80;;;;;;4925903;29;20040;-84
2022/01/27 03:29:52;;;;;;;2.72;1.30;;;6.00;49.70;;;;;;4937348;29;20039;-85
2022/01/27 03:32:19;;;;;;;1.48;1.33;;;6.00;49.70;;;;;;4937952;29;20031;-85
2022/01/27 03:34:45;;;;;;;1.67;1.10;;;6.00;49.50;;;;;;4890428;29;20502;-85
2022/01/27 03:37:12;;;;;;;1.58;1.13;;;6.00;49.50;;;;;;4921111;29;20035;-84
2022/01/27 03:39:39;;;;;;;1.27;1.17;;;6.00;49.40;;;;;;4921305;29;20042;-85
2022/01/27 03:42:06;;;;;;;2.45;1.40;;;6.00;49.40;;;;;;4936531;29;20039;-85
2022/01/27 03:44:33;;;;;;;1.42;1.27;;;6.00;49.40;;;;;;4937815;28;20097;-86
2022/01/27 03:47:01;;;;;;;1.60;1.15;;;6.00;49.40;;;;;;4921051;29;20843;-83
2022/01/27 03:49:27;;;;;;;1.35;1.20;;;6.00;49.30;;;;;;4937731;29;20071;-84
2022/01/27 03:51:58;;;;;;;1.90;1.33;;;6.00;49.40;;;;;;4921487;29;20125;-87
2022/01/27 03:54:24;;;;;;;1.65;1.23;;;6.00;49.30;;;;;;4937590;29;20050;-85
2022/01/27 03:56:50;;;;;;;2.38;1.38;;;6.00;49.30;;;;;;4939040;29;20043;-87
2022/01/27 03:59:16;;;;;;;1.23;1.10;;;6.00;49.20;;;;;;4928205;29;20040;-86
2022/01/27 04:01:42;;;;;;;1.30;1.20;;;6.00;49.20;;;;;;4942717;28;20049;-87
2022/01/27 04:04:08;;;;;;;1.05;0.90;;;6.00;49.20;;;;;;4905865;29;20047;-84
2022/01/27 04:06:37;;;;;;;1.20;1.10;;;6.00;49.30;;;;;;4906220;29;20129;-84
2022/01/27 04:09:05;;;;;;;1.63;1.20;;;6.00;49.30;;;;;;4906149;29;20031;-84
2022/01/27 04:11:32;;;;;;;2.10;1.27;;;6.00;49.40;;;;;;4919758;29;20035;-84
2022/01/27 04:13:58;;;;;;;2.20;1.40;;;6.00;49.30;;;;;;4905194;29;20126;-84
2022/01/27 04:16:24;;;;;;;1.50;1.27;;;6.00;49.20;;;;;;4924405;29;20130;-85
2022/01/27 04:18:51;;;;;;;1.27;1.00;;;6.00;49.40;;;;;;4914168;29;20122;-83
2022/01/27 04:21:18;;;;;;;1.30;1.20;;;5.90;49.20;;;;;;4938221;29;20123;-83
2022/01/27 04:23:44;;;;;;;1.10;1.00;;;5.90;49.20;;;;;;4923205;29;20058;-82
2022/01/27 04:26:13;;;;;;;1.50;1.02;;;6.00;49.30;;;;;;4935097;28;20031;-83
2022/01/27 04:28:40;;;;;;;1.48;1.10;;;5.90;49.20;;;;;;4917505;29;20041;-82
2022/01/27 04:31:08;;;;;;;2.35;1.50;;;6.00;49.30;;;;;;4910184;29;20406;-83
2022/01/27 04:33:36;;;;;;;2.67;1.23;;;6.00;49.40;;;;;;4917841;29;20039;-85
2022/01/27 04:36:11;;;;;;;2.78;1.30;;;6.00;49.50;;;;;;4909889;29;20044;-83
2022/01/27 04:38:57;;;;;;;1.75;1.50;;;5.90;49.40;;;;;;4911826;29;20038;-82
2022/01/27 04:44:06;;;;;;;3.13;1.33;;;6.00;49.50;;;;;;4920567;29;20047;-83
2022/01/27 04:46:43;;;;;;;1.55;1.33;;;6.00;49.50;;;;;;4937561;29;20367;-83
2022/01/27 04:49:10;;;;;;;2.03;1.52;;;6.00;49.40;;;;;;4922257;29;20103;-85
2022/01/27 04:51:36;;;;;;;1.75;1.40;;;6.00;49.40;;;;;;4920259;29;20040;-86
2022/01/27 04:54:09;;;;;;;2.13;1.40;;;6.10;49.30;;;;;;4922398;29;20398;-81
2022/01/27 04:56:38;;;;;;;1.58;1.30;;;6.10;49.30;;;;;;4936552;29;20031;-91
2022/01/27 04:59:11;;;;;;;2.47;1.52;;;6.10;49.30;;;;;;4931200;29;20031;-82
2022/01/27 05:01:43;;;;;;;1.80;1.30;;;6.10;49.30;;;;;;4899957;29;20051;-83
2022/01/27 05:04:13;;;;;;;2.00;1.42;;;6.10;49.40;;;;;;4936105;29;20048;-83
2022/01/27 05:06:39;;;;;;;2.08;1.55;;;6.20;49.30;;;;;;4922614;29;20043;-85
2022/01/27 05:09:06;;;;;;;2.13;1.45;;;6.20;49.30;;;;;;4939434;29;20028;-82
2022/01/27 05:11:39;;;;;;;2.90;1.30;;;6.10;49.10;;;;;;4921948;29;20031;-82
2022/01/27 05:14:14;;;;;;;2.22;1.50;;;6.20;49.20;;;;;;4943664;29;20103;-87
2022/01/27 05:16:41;;;;;;;2.80;1.63;;;6.20;49.10;;;;;;4921422;29;20039;-86
2022/01/27 05:19:07;;;;;;;2.90;1.23;;;6.10;49.00;;;;;;4923149;29;20036;-87
2022/01/27 05:21:33;;;;;;;2.03;1.33;;;6.20;49.00;;;;;;4940135;29;20135;-88
2022/01/27 05:24:00;;;;;;;1.98;1.52;;;6.10;48.90;;;;;;4900597;29;20095;-86
2022/01/27 05:26:26;;;;;;;8.02;1.25;;;6.10;48.90;;;;;;4903279;29;20054;-87
2022/01/27 05:28:52;;;;;;;1.80;1.60;;;6.20;48.90;;;;;;4910003;29;20035;-87
2022/01/27 05:31:19;;;;;;;1.60;1.10;;;6.10;48.80;;;;;;4914651;29;20031;-87
2022/01/27 05:33:45;;;;;;;1.58;1.25;;;6.10;48.80;;;;;;4903991;29;20073;-86
2022/01/27 05:36:11;;;;;;;6.88;3.58;;;6.10;48.70;;;;;;4903699;29;20095;-85
2022/01/27 05:38:37;;;;;;;8.82;5.10;;;6.10;48.70;;;;;;4929379;29;20035;-86
2022/01/27 05:41:04;;;;;;;6.85;4.53;;;6.10;48.70;;;;;;4921848;29;20042;-85
2022/01/27 05:43:34;;;;;;;6.97;3.85;;;6.10;48.60;;;;;;4933188;29;20430;-85
2022/01/27 05:46:00;;;;;;;5.85;3.28;;;6.10;48.60;;;;;;4918012;29;20142;-85
2022/01/27 05:48:26;;;;;;;5.80;3.03;;;6.10;48.60;;;;;;4934937;29;20110;-84
2022/01/27 05:50:52;;;;;;;4.43;2.85;;;6.10;48.60;;;;;;4916622;29;20575;-84
2022/01/27 05:53:18;;;;;;;4.05;2.67;;;6.10;48.70;;;;;;4921772;29;20043;-85
2022/01/27 05:55:44;;;;;;;2.13;1.92;;;6.10;48.60;;;;;;4924269;29;20444;-84
2022/01/27 05:58:10;;;;;;;5.30;2.45;;;6.10;48.60;;;;;;4923240;29;20174;-85
2022/01/27 06:00:36;;;;;;;3.03;1.90;;;6.10;49.20;;;;;;4921540;29;20031;-85
2022/01/27 06:03:02;;;;;;;2.85;2.15;;;6.10;48.60;;;;;;4922110;29;20046;-86
2022/01/27 06:05:28;;;;;;;1.98;1.50;;;6.10;48.70;;;;;;4907332;29;20039;-83
2022/01/27 06:07:54;;;;;;;1.30;1.20;;;6.10;48.70;;;;;;4904747;29;20414;-86
2022/01/27 06:10:20;;;;;;;1.75;1.25;;;6.10;48.70;;;;;;4916281;29;20038;-86
2022/01/27 06:12:51;;;;;;;2.13;1.67;;;6.10;48.50;;;;;;4954599;29;20126;-86
2022/01/27 06:15:18;;;;;;;2.35;1.50;;;6.10;48.60;;;;;;4949078;29;20099;-86
2022/01/27 06:17:44;;;;;;;1.38;1.23;;;6.10;48.60;;;;;;4923762;29;20027;-85
2022/01/27 06:20:11;;;;;;;2.05;1.20;;;6.20;49.20;;;;;;4914050;29;20118;-85
2022/01/27 06:22:37;;;;;;;2.13;1.30;;;6.20;48.40;;;;;;4918039;29;20040;-85
2022/01/27 06:25:04;;;;;;;2.33;1.10;;;6.20;48.40;;;;;;4919296;29;20110;-83
2022/01/27 06:27:30;;;;;;;2.95;1.20;;;6.20;48.30;;;;;;4909647;29;20038;-85
2022/01/27 06:29:56;;;;;;;1.77;1.25;;;6.20;48.20;;;;;;4935634;29;20028;-84
2022/01/27 06:32:21;;;;;;;5.40;1.33;;;6.30;48.20;;;;;;4934005;29;20039;-85
2022/01/27 06:34:47;;;;;;;2.40;0.90;;;6.30;48.10;;;;;;4934793;29;20074;-86
2022/01/27 06:37:14;;;;;;;1.33;0.90;;;6.30;48.10;;;;;;4905240;29;20036;-85
2022/01/27 06:39:40;;;;;;;1.83;1.00;;;6.30;48.00;;;;;;4932645;29;20067;-85
2022/01/27 06:42:07;;;;;;;1.55;0.95;;;6.30;47.90;;;;;;4937533;29;20427;-84
2022/01/27 06:44:34;;;;;;;2.88;1.20;;;6.30;47.80;;;;;;4899294;29;20511;-84
2022/01/27 06:47:00;;;;;;;1.60;0.98;;;6.40;47.90;;;;;;4920670;29;20086;-84
2022/01/27 06:49:26;;;;;;;1.45;0.90;;;6.40;47.80;;;;;;4928763;29;20032;-85
2022/01/27 06:51:52;;;;;;;0.93;0.60;;;6.40;47.80;;;;;;4942856;28;20043;-85
2022/01/27 06:54:18;;;;;;;1.08;0.88;;;6.40;47.80;;;;;;4935869;29;20043;-85
2022/01/27 06:56:45;;;;;;;1.05;0.95;;;6.40;47.80;;;;;;4904056;29;20109;-85
2022/01/27 06:59:11;;;;;;;2.28;1.38;;;6.40;47.70;;;;;;4915665;29;20409;-85
2022/01/27 07:01:37;;;;;;;3.28;1.38;;;6.40;47.80;;;;;;4902420;29;20043;-86
2022/01/27 07:04:03;;;;;;;1.15;1.05;;;6.40;47.70;;;;;;4902232;29;20039;-87
2022/01/27 07:06:29;;;;;;;3.38;1.65;;;6.40;47.80;;;;;;4921798;29;20031;-86
2022/01/27 07:08:55;;;;;;;1.42;1.10;;;6.40;47.80;;;;;;4910381;29;20486;-86
2022/01/27 07:11:21;;;;;;;1.85;1.13;;;6.40;47.80;;;;;;4919211;29;20521;-85
2022/01/27 07:13:47;;;;;;;1.45;1.30;;;6.40;47.80;;;;;;4911901;29;20035;-85
2022/01/27 07:16:13;;;;;;;2.60;1.45;;;6.40;47.70;;;;;;4922250;29;20463;-85
2022/01/27 07:18:39;;;;;;;3.22;1.83;;;6.40;47.70;;;;;;4933164;29;20118;-85
2022/01/27 07:21:05;;;;;;;1.50;1.38;;;6.40;47.70;;;;;;4945947;29;20039;-85
2022/01/27 07:23:31;;;;;;;2.90;1.35;;;6.50;47.70;;;;;;4928852;29;20535;-85
2022/01/27 07:25:57;;;;;;;1.25;1.15;;;6.50;47.70;;;;;;4918547;29;20047;-85
2022/01/27 07:28:23;;;;;;;1.52;1.40;;;6.50;47.70;;;;;;4934957;29;20570;-84
2022/01/27 07:30:49;;;;;;;1.40;1.30;;;6.50;47.80;;;;;;4916843;29;20562;-84
2022/01/27 07:33:15;;;;;;;1.85;1.50;;;6.50;47.80;;;;;;4933882;29;20047;-85
2022/01/27 07:35:41;;;;;;;1.30;1.20;;;6.50;47.90;;;;;;4922914;29;20043;-85
2022/01/27 07:38:08;;;;;;;1.35;1.25;;;6.50;47.90;;;;;;4906235;29;20036;-85
2022/01/27 07:40:34;;;;;;;1.88;1.60;;;6.50;47.90;;;;;;4921026;29;20046;-84
2022/01/27 07:43:00;;;;;;;2.47;1.30;;;6.50;47.80;;;;;;4936449;29;20082;-84
2022/01/27 07:45:26;;;;;;;3.05;1.35;;;6.50;47.90;;;;;;4920514;29;20047;-85
2022/01/27 07:47:52;;;;;;;2.05;1.70;;;6.50;47.90;;;;;;4921075;29;20424;-84
2022/01/27 07:50:19;;;;;;;1.92;1.50;;;6.50;47.80;;;;;;4937616;29;20059;-84
2022/01/27 07:52:45;;;;;;;2.10;1.75;;;6.60;47.90;;;;;;4905011;29;21032;-83
2022/01/27 07:55:12;;;;;;;4.10;1.70;;;6.50;47.90;;;;;;4937360;29;20459;-86
2022/01/27 07:57:38;;;;;;;2.92;1.60;;;6.60;47.90;;;;;;4907145;29;20146;-84
2022/01/27 08:00:07;;;;;;;1.70;1.50;;;6.60;47.90;;;;;;4912295;29;20123;-86
2022/01/27 08:02:38;;;;;;;1.75;1.50;;;6.60;47.90;;;;;;4934785;29;20499;-86
2022/01/27 08:05:05;;;;;;;1.83;1.30;;;6.60;47.90;;;;;;4901789;29;20573;-86
2022/01/27 08:07:31;;;;;;;1.55;1.30;;;6.50;47.80;;;;;;4925697;29;20166;-86
2022/01/27 08:09:57;;;;;;;1.90;1.60;;;6.50;47.80;;;;;;4932996;29;20039;-86
2022/01/27 08:12:23;;;;;;;1.83;1.30;;;6.50;47.80;;;;;;4902278;29;20047;-86
2022/01/27 08:14:49;;;;;;;2.38;1.48;;;6.50;47.80;;;;;;4933006;29;20039;-87
2022/01/27 08:17:17;;;;;;;1.15;1.05;;;6.50;47.80;;;;;;4935252;29;20516;-86
2022/01/27 08:19:43;;;;;;;4.45;1.50;;;6.50;47.70;;;;;;4932020;29;20071;-86
2022/01/27 08:22:10;;;;;;;1.52;1.13;;;6.50;47.60;;;;;;4920779;29;20043;-86
2022/01/27 08:24:37;;;;;;;1.38;1.27;;;6.50;47.60;;;;;;4926592;29;20043;-84
2022/01/27 08:27:06;;;;;;;2.85;1.35;;;6.50;47.60;;;;;;4912063;29;20036;-85
2022/01/27 08:29:43;;;;;;;2.45;1.33;;;6.50;47.60;;;;;;4929134;29;20070;-85
2022/01/27 08:32:16;;;;;;;1.30;1.15;;;6.50;47.60;;;;;;4902716;29;20380;-85
2022/01/27 08:34:42;;;;;;;1.45;1.13;;;6.50;47.70;;;;;;4906805;29;20042;-85
2022/01/27 08:37:18;;;;;;;2.28;1.30;;;6.50;47.70;;;;;;4919172;29;20051;-82
2022/01/27 08:39:48;;;;;;;2.22;1.30;;;6.50;47.60;;;;;;4926497;29;20103;-84
2022/01/27 08:42:15;;;;;;;2.38;1.33;;;6.50;48.20;;;;;;4921114;29;20043;-84
2022/01/27 08:44:42;;;;;;;2.05;1.25;;;6.50;47.70;;;;;;4917966;29;20035;-85
2022/01/27 08:47:11;;;;;;;1.98;1.23;;;6.50;47.80;;;;;;4917912;29;20044;-85
2022/01/27 08:49:37;;;;;;;2.53;1.45;;;6.50;47.80;;;;;;4920354;29;20035;-84
2022/01/27 08:52:03;;;;;;;3.47;1.42;;;6.50;47.70;;;;;;4896919;29;20065;-88
2022/01/27 08:54:29;;;;;;;1.70;1.30;;;6.50;47.80;;;;;;4928209;29;20095;-86
2022/01/27 08:56:55;;;;;;;3.13;1.48;;;6.60;47.80;;;;;;4916670;29;20046;-88
2022/01/27 08:59:21;;;;;;;1.15;1.05;;;6.60;47.80;;;;;;4917446;29;20043;-88
2022/01/27 09:01:47;;;;;;;2.13;1.15;;;6.60;48.00;;;;;;4916850;29;20047;-89
2022/01/27 09:04:14;;;;;;;2.67;1.30;;;6.60;48.40;;;;;;4904223;29;20039;-89
2022/01/27 09:06:40;;;;;;;1.40;1.30;;;6.60;48.50;;;;;;4903804;29;20040;-89
2022/01/27 09:09:06;;;;;;;2.22;1.55;;;6.70;48.60;;;;;;4913442;29;20043;-86
2022/01/27 09:11:33;;;;;;;3.10;1.30;;;6.70;48.60;;;;;;4931187;29;20503;-88
2022/01/27 09:14:00;;;;;;;2.22;1.40;;;6.70;48.70;;;;;;4908780;29;20050;-90
2022/01/27 09:16:28;;;;;;;2.33;1.50;;;6.80;48.90;;;;;;4937289;29;20031;-91
2022/01/27 09:18:56;;;;;;;1.55;1.20;;;6.70;48.90;;;;;;4944343;29;20039;-94
2022/01/27 09:21:26;;;;;;;2.53;1.40;;;6.80;49.00;;;;;;4941510;28;20490;-93
2022/01/27 09:23:53;;;;;;;1.55;1.30;;;6.80;49.10;;;;;;4919062;29;20050;-94
2022/01/27 09:26:43;;;;;;;2.05;1.20;;;6.90;49.50;;;;;;4928906;29;20056;-92
2022/01/27 09:29:09;;;;;;;2.22;1.23;;;6.90;49.90;;;;;;4948379;29;20043;-86
2022/01/27 09:31:36;;;;;;;1.60;1.10;;;6.90;50.50;;;;;;4932326;29;20066;-88
2022/01/27 09:34:02;;;;;;;0.82;0.73;;;6.90;51.00;;;;;;4951686;29;20104;-87
2022/01/27 09:36:28;;;;;;;1.83;0.93;;;6.90;51.20;;;;;;4927285;29;20039;-89
2022/01/27 09:38:54;;;;;;;1.42;0.82;;;7.00;51.50;;;;;;4923048;29;20027;-88
2022/01/27 09:41:22;;;;;;;2.85;1.20;;;7.00;51.60;;;;;;4899774;29;20417;-88
2022/01/27 09:43:51;;;;;;;1.10;1.00;;;7.10;51.80;;;;;;4921413;29;20082;-90
2022/01/27 09:46:19;;;;;;;1.58;1.00;;;7.10;51.90;;;;;;4905862;29;20043;-89
2022/01/27 09:48:48;;;;;;;3.00;1.10;;;7.10;52.00;;;;;;4915156;29;20036;-87
2022/01/27 09:51:38;;;;;;;2.05;1.15;;;7.10;52.10;;;;;;4933319;29;20023;-87
2022/01/27 09:54:05;;;;;;;2.78;1.10;;;7.20;52.20;;;;;;4923988;29;20818;-80
2022/01/27 09:56:31;;;;;;;2.45;1.08;;;7.20;52.40;;;;;;4911788;29;20042;-80
2022/01/27 09:58:57;;;;;;;1.77;0.70;;;7.20;52.90;;;;;;4938213;29;20080;-81
2022/01/27 10:01:23;;;;;;;1.55;1.10;;;7.20;54.40;;;;;;4911508;29;20070;-81
2022/01/27 10:03:56;;;;;;;3.05;1.30;;;7.30;54.70;;;;;;4917838;29;20134;-80
2022/01/27 10:06:28;;;;;;;2.53;0.90;;;7.30;54.80;;;;;;4934693;29;20063;-80
2022/01/27 10:09:16;;;;;;;3.55;1.08;;;7.30;54.70;;;;;;4933196;29;20054;-81
2022/01/27 10:11:46;;;;;;;2.90;1.00;;;7.40;54.80;;;;;;4911814;29;20046;-81
2022/01/27 10:14:24;;;;;;;0.98;0.65;;;7.40;55.00;;;;;;4935813;29;20059;-85
2022/01/27 10:16:54;;;;;;;4.00;0.90;;;7.40;55.70;;;;;;4903390;29;20039;-81
2022/01/27 10:19:21;;;;;;;1.02;0.60;;;7.50;55.20;;;;;;4935906;29;20636;-83
2022/01/27 10:21:47;;;;;;;1.50;0.90;;;7.50;55.20;;;;;;4887437;29;20091;-80
2022/01/27 10:24:27;;;;;;;0.70;0.70;;;7.50;55.10;;;;;;4920974;29;20462;-82
2022/01/27 10:27:27;;;;;;;1.52;1.00;;;7.50;55.10;;;;;;4932817;29;20114;-83
2022/01/27 10:32:38;;;;;;;1.23;0.82;;;7.60;54.90;;;;;;4934933;29;20035;-79
2022/01/27 10:35:05;;;;;;;1.73;0.90;;;7.60;54.90;;;;;;4935330;29;20032;-79
2022/01/27 10:37:56;;;;;;;4.30;1.10;;;7.70;55.00;;;;;;4934062;29;20078;-81
2022/01/27 10:40:23;;;;;;;3.15;0.90;;;7.70;55.00;;;;;;4922953;29;20043;-81
2022/01/27 10:43:02;;;;;;;1.52;1.00;;;7.70;55.00;;;;;;4940239;29;20534;-83
2022/01/27 10:45:28;;;;;;;1.92;1.00;;;7.70;55.00;;;;;;4919529;29;20192;-84
2022/01/27 10:48:11;;;;;;;1.45;0.95;;;7.80;55.10;;;;;;4920984;29;20445;-82
2022/01/27 10:51:14;;;;;;;1.13;0.82;;;7.80;55.20;;;;;;4939581;29;20035;-81
2022/01/27 10:53:58;;;;;;;1.75;0.95;;;7.80;55.30;;;;;;4910163;29;20107;-81
2022/01/27 10:56:29;;;;;;;1.02;0.80;;;7.80;55.30;;;;;;4937667;29;20374;-80
2022/01/27 10:58:57;;;;;;;1.10;0.95;;;7.80;55.40;;;;;;4938177;29;20422;-81
2022/01/27 11:01:50;;;;;;;1.13;0.90;;;7.80;55.40;;;;;;4921202;29;20454;-81
2022/01/27 11:04:17;;;;;;;1.60;1.00;;;7.90;55.50;;;;;;4891734;29;20039;-82
2022/01/27 11:06:55;;;;;;;2.17;1.00;;;7.90;55.50;;;;;;4917946;29;20577;-80
2022/01/27 11:09:21;;;;;;;2.65;1.25;;;7.90;55.50;;;;;;4915779;29;20035;-81
2022/01/27 11:11:52;;;;;;;1.92;0.93;;;7.90;55.50;;;;;;4943156;28;20035;-80
2022/01/27 11:14:24;;;;;;;2.25;1.08;;;7.90;55.50;;;;;;4936067;29;20050;-81
2022/01/27 11:16:55;;;;;;;1.05;0.73;;;7.90;55.50;;;;;;4935778;29;20051;-81
2022/01/27 11:21:54;;;;;;;0.98;0.90;;;8.00;55.90;;;;;;4938186;29;20518;-81
2022/01/27 11:24:27;;;;;;;5.40;1.20;;;8.00;56.00;;;;;;4938140;29;20518;-81
2022/01/27 11:26:56;;;;;;;3.03;1.00;;;8.00;56.00;;;;;;4919635;29;20402;-81
2022/01/27 11:29:24;;;;;;;2.67;0.85;;;8.00;56.20;;;;;;4927714;29;20094;-81
2022/01/27 11:32:07;;;;;;;2.33;1.13;;;8.00;56.20;;;;;;4938667;29;20066;-81
2022/01/27 11:34:50;;;;;;;1.83;0.70;;;8.00;56.30;;;;;;4916032;29;20036;-80
2022/01/27 11:37:28;;;;;;;2.65;1.10;;;8.10;56.50;;;;;;4916961;29;20046;-79
2022/01/27 11:39:56;;;;;;;1.52;1.00;;;8.10;56.60;;;;;;4920491;29;20036;-81
2022/01/27 11:42:41;;;;;;;2.88;1.35;;;8.10;56.70;;;;;;4933868;29;20070;-82
2022/01/27 11:45:23;;;;;;;1.75;1.05;;;8.10;56.70;;;;;;4933955;29;20071;-82
2022/01/27 11:47:53;;;;;;;2.15;1.05;;;8.10;56.70;;;;;;4936443;29;20136;-81
2022/01/27 11:50:35;;;;;;;3.22;1.13;;;8.10;56.80;;;;;;4901940;29;20035;-82
2022/01/27 11:53:03;;;;;;;1.02;0.95;;;8.10;56.70;;;;;;4930935;29;20535;-81
2022/01/27 11:55:44;;;;;;;3.28;1.23;;;8.10;56.80;;;;;;4933388;29;20040;-81
2022/01/27 11:58:14;;;;;;;1.70;1.00;;;8.20;56.80;;;;;;4924275;29;20149;-81
2022/01/27 12:00:59;;;;;;;1.67;1.10;;;8.10;56.60;;;;;;4933820;29;20054;-81
2022/01/27 12:03:26;;;;;;;1.35;1.10;;;8.20;56.70;;;;;;4918361;29;20043;-81
2022/01/27 12:06:21;;;;;;;1.85;1.10;;;8.20;56.60;;;;;;4938325;29;20103;-80
2022/01/27 12:08:47;;;;;;;2.47;1.13;;;8.20;56.50;;;;;;4935336;29;20113;-80
2022/01/27 12:11:46;;;;;;;1.60;1.10;;;8.20;56.70;;;;;;4909001;29;20398;-80
2022/01/27 12:14:15;;;;;;;2.55;1.13;;;8.20;56.80;;;;;;4919583;29;20046;-80
2022/01/27 12:16:53;;;;;;;2.00;1.10;;;8.30;56.70;;;;;;4935541;29;20465;-80
2022/01/27 12:19:20;;;;;;;1.73;1.10;;;8.20;56.50;;;;;;4932076;29;20044;-79
2022/01/27 12:21:54;;;;;;;2.15;1.10;;;8.30;56.70;;;;;;4933418;29;20040;-81
2022/01/27 12:24:23;;;;;;;1.27;1.17;;;8.30;56.60;;;;;;4945133;29;20082;-81
2022/01/27 12:27:07;;;;;;;3.47;1.10;;;8.30;56.70;;;;;;4907271;29;20117;-80
2022/01/27 12:29:39;;;;;;;1.48;1.27;;;8.30;56.60;;;;;;4931916;29;20046;-81
2022/01/27 12:32:07;;;;;;;1.80;1.10;;;8.30;56.70;;;;;;4933138;29;20072;-81
2022/01/27 12:34:36;;;;;;;2.83;1.10;;;8.30;56.70;;;;;;4900779;29;20072;-81
2022/01/27 12:37:04;;;;;;;1.55;1.35;;;8.30;56.60;;;;;;4918263;29;20501;-81
2022/01/27 12:39:34;;;;;;;2.42;1.27;;;8.30;56.60;;;;;;4916586;29;20051;-81
2022/01/27 12:42:02;;;;;;;1.65;1.30;;;8.30;56.60;;;;;;4916126;29;20051;-80
2022/01/27 12:44:29;;;;;;;1.33;1.20;;;8.40;56.60;;;;;;4933923;29;20219;-81
2022/01/27 12:47:15;;;;;;;1.98;1.40;;;8.40;56.80;;;;;;4936252;29;20048;-82
2022/01/27 12:50:02;;;;;;;0.97;0.90;;;8.40;56.70;;;;;;4916517;29;20031;-81
2022/01/27 12:52:32;;;;;;;1.95;1.23;;;8.40;56.70;;;;;;4887896;29;20035;-81
2022/01/27 12:54:58;;;;;;;2.45;1.40;;;8.40;56.80;;;;;;4936240;29;20067;-81
2022/01/27 12:57:26;;;;;;;1.17;1.08;;;8.40;56.70;;;;;;4935691;29;20066;-81
2022/01/27 12:59:54;;;;;;;2.67;1.08;;;8.40;56.80;;;;;;4928638;29;20035;-81
2022/01/27 13:02:22;;;;;;;1.38;0.82;;;8.40;57.20;;;;;;4934156;29;20049;-82
2022/01/27 13:04:49;;;;;;;1.30;1.20;;;8.40;56.80;;;;;;4919028;29;20040;-81
2022/01/27 13:07:18;;;;;;;1.35;1.08;;;8.40;56.50;;;;;;4918543;29;20039;-81
2022/01/27 13:09:52;;;;;;;1.58;1.33;;;8.40;56.40;;;;;;4935098;29;20043;-80
2022/01/27 13:12:23;;;;;;;1.23;1.13;;;8.40;56.20;;;;;;4903016;29;20028;-83
2022/01/27 13:15:06;;;;;;;2.20;1.10;;;8.40;56.40;;;;;;4935083;29;20043;-83
2022/01/27 13:17:59;;;;;;;1.30;1.00;;;8.40;56.40;;;;;;4903452;29;20047;-82
2022/01/27 13:20:30;;;;;;;1.20;1.10;;;8.40;56.50;;;;;;4903315;29;20047;-89
2022/01/27 13:23:17;;;;;;;1.63;1.05;;;8.40;56.30;;;;;;4917970;29;20089;-89
2022/01/27 13:25:54;;;;;;;1.67;1.13;;;8.40;56.30;;;;;;4935968;29;20043;-88
2022/01/27 13:28:24;;;;;;;1.15;0.88;;;8.40;56.30;;;;;;4918865;29;20038;-87
2022/01/27 13:31:03;;;;;;;2.40;1.15;;;8.40;56.40;;;;;;4919216;29;20039;-88
2022/01/27 13:33:34;;;;;;;2.25;1.00;;;8.40;56.50;;;;;;4935323;29;20455;-86
2022/01/27 13:36:00;;;;;;;1.17;1.08;;;8.50;56.60;;;;;;4935527;29;20051;-86
2022/01/27 13:38:31;;;;;;;1.70;0.90;;;8.50;56.70;;;;;;4920508;29;20043;-83
2022/01/27 13:41:22;;;;;;;1.50;0.90;;;8.50;56.80;;;;;;4936463;29;20027;-84
2022/01/27 13:43:51;;;;;;;3.00;1.40;;;8.50;57.00;;;;;;4935364;29;20039;-87
2022/01/27 13:46:40;;;;;;;6.70;1.50;;;8.50;57.50;;;;;;4921532;29;20074;-90
2022/01/27 13:49:18;;;;;;;3.75;1.10;;;8.50;62.00;;;;;;4939554;29;20035;-85
2022/01/27 13:51:57;;;;;;;4.65;1.25;;;8.60;64.80;;;;;;4919475;29;20044;-94
2022/01/27 13:54:37;;;;;;;1.92;1.58;;;8.60;64.90;;;;;;4936130;28;20027;-89
2022/01/27 13:57:09;;;;;;;2.67;1.30;;;8.70;63.00;;;;;;5072218;23;20070;-84
2022/01/27 13:59:51;;;;;;;3.30;1.60;;;8.70;62.40;;;;;;4990893;28;20022;-84
2022/01/27 14:02:25;;;;;;;5.93;2.00;;;8.70;62.30;;;;;;4972303;28;20016;-86